createdAt,value
2023-03-21T00:00:23.897Z,8.65
2023-03-21T00:02:50.409Z,9.18
2023-03-21T00:05:17.122Z,8.48
2023-03-21T00:07:43.703Z,8.52
2023-03-21T00:10:16.711Z,7.77
2023-03-21T00:12:44.854Z,8.40
2023-03-21T00:15:12.804Z,8.05
2023-03-21T00:17:39.660Z,9.57
2023-03-21T00:20:15.110Z,8.90
2023-03-21T00:22:42.029Z,8.20
2023-03-21T00:25:10.644Z,8.55
2023-03-21T00:27:56.807Z,8.70
2023-03-21T00:30:24.173Z,7.80
2023-03-21T00:32:56.436Z,8.10
2023-03-21T00:35:54.007Z,7.18
2023-03-21T00:38:11.160Z,7.43
2023-03-21T00:40:43.761Z,7.38
2023-03-21T00:43:19.445Z,6.75
2023-03-21T00:45:46.608Z,6.72
2023-03-21T00:48:13.766Z,6.77
2023-03-21T00:50:40.906Z,6.13
2023-03-21T00:53:07.551Z,6.82
2023-03-21T00:55:34.386Z,6.90
2023-03-21T00:58:02.544Z,6.50
2023-03-21T01:00:29.821Z,6.37
2023-03-21T01:03:02.873Z,6.65
2023-03-21T01:05:52.681Z,7.32
2023-03-21T01:08:28.001Z,8.23
2023-03-21T01:10:56.742Z,7.47
2023-03-21T01:13:25.529Z,8.63
2023-03-21T01:15:55.777Z,9.15
2023-03-21T01:18:26.920Z,9.77
2023-03-21T01:20:54.787Z,9.85
2023-03-21T01:23:21.225Z,9.07
2023-03-21T01:25:48.843Z,8.83
2023-03-21T01:28:16.170Z,10.00
2023-03-21T01:30:50.290Z,8.85
2023-03-21T01:33:18.046Z,9.48
2023-03-21T01:35:50.439Z,9.45
2023-03-21T01:38:20.456Z,11.07
2023-03-21T01:40:48.690Z,10.38
2023-03-21T01:43:24.792Z,10.43
2023-03-21T01:46:21.225Z,9.80
2023-03-21T01:49:02.004Z,11.77
2023-03-21T01:51:31.077Z,10.63
2023-03-21T01:53:57.829Z,11.52
2023-03-21T01:56:26.175Z,10.70
2023-03-21T01:58:55.972Z,11.57
2023-03-21T02:01:23.273Z,11.10
2023-03-21T02:03:51.671Z,12.50
2023-03-21T02:06:31.711Z,13.00
2023-03-21T02:09:05.001Z,13.70
2023-03-21T02:11:32.218Z,12.63
2023-03-21T02:14:06.431Z,12.63
2023-03-21T02:16:40.170Z,13.57
2023-03-21T02:19:31.927Z,12.88
2023-03-21T02:22:19.376Z,12.73
2023-03-21T02:25:13.362Z,14.10
2023-03-21T02:27:55.832Z,13.88
2023-03-21T02:30:59.642Z,13.60
2023-03-21T02:33:37.643Z,11.30
2023-03-21T02:36:14.474Z,13.45
2023-03-21T02:38:52.954Z,12.00
2023-03-21T02:41:29.788Z,11.52
2023-03-21T02:44:20.126Z,12.13
2023-03-21T02:47:06.358Z,11.80
2023-03-21T02:49:42.962Z,12.88
2023-03-21T02:52:28.372Z,12.75
2023-03-21T02:55:04.913Z,12.23
2023-03-21T02:57:42.150Z,12.67
2023-03-21T03:00:16.576Z,12.70
2023-03-21T03:02:43.622Z,13.15
2023-03-21T03:05:21.182Z,12.10
2023-03-21T03:07:51.298Z,11.82
2023-03-21T03:10:32.363Z,12.18
2023-03-21T03:13:12.533Z,12.20
2023-03-21T03:16:13.596Z,11.55
2023-03-21T03:19:01.198Z,9.80
2023-03-21T03:21:42.242Z,10.98
2023-03-21T03:24:20.507Z,10.93
2023-03-21T03:27:06.800Z,9.90
2023-03-21T03:29:37.138Z,10.48
2023-03-21T03:32:18.836Z,10.52
2023-03-21T03:34:51.497Z,10.55
2023-03-21T03:37:22.073Z,11.07
2023-03-21T03:40:08.165Z,10.52
2023-03-21T03:42:51.987Z,11.82
2023-03-21T03:45:21.993Z,10.73
2023-03-21T03:48:02.622Z,11.60
2023-03-21T03:51:01.488Z,11.10
2023-03-21T03:53:36.917Z,11.38
2023-03-21T03:56:07.135Z,11.35
2023-03-21T03:58:44.827Z,10.88
2023-03-21T04:01:12.407Z,12.02
2023-03-21T04:03:49.028Z,10.97
2023-03-21T04:06:18.586Z,12.30
2023-03-21T04:08:45.113Z,11.65
2023-03-21T04:11:15.597Z,11.77
2023-03-21T04:13:42.390Z,11.13
2023-03-21T04:16:11.539Z,10.60
2023-03-21T04:18:39.205Z,11.80
2023-03-21T04:21:13.005Z,10.90
2023-03-21T04:23:40.837Z,11.93
2023-03-21T04:26:08.066Z,11.57
2023-03-21T04:28:37.057Z,11.00
2023-03-21T04:31:22.691Z,12.13
2023-03-21T04:33:51.842Z,12.80
2023-03-21T04:36:38.893Z,10.55
2023-03-21T04:39:12.192Z,11.05
2023-03-21T04:41:44.031Z,12.38
2023-03-21T04:44:11.864Z,12.35
2023-03-21T04:46:38.903Z,11.32
2023-03-21T04:49:06.966Z,11.10
2023-03-21T04:51:34.155Z,11.65
2023-03-21T04:54:00.695Z,11.00
2023-03-21T04:56:32.660Z,11.68
2023-03-21T04:59:00.942Z,11.73
2023-03-21T05:01:30.707Z,11.82
2023-03-21T05:03:59.140Z,11.80
2023-03-21T05:06:26.470Z,9.73
2023-03-21T05:08:53.064Z,10.70
2023-03-21T05:11:19.561Z,10.15
2023-03-21T05:13:46.332Z,10.32
2023-03-21T05:16:12.830Z,8.85
2023-03-21T05:18:39.353Z,8.30
2023-03-21T05:21:10.136Z,8.50
2023-03-21T05:23:41.993Z,8.05
2023-03-21T05:26:09.978Z,7.35
2023-03-21T05:28:36.762Z,8.15
2023-03-21T05:31:04.417Z,7.30
2023-03-21T05:33:31.141Z,8.90
2023-03-21T05:35:58.642Z,7.82
2023-03-21T05:38:25.664Z,7.93
2023-03-21T05:40:53.760Z,7.55
2023-03-21T05:43:20.346Z,7.20
2023-03-21T05:45:48.198Z,7.63
2023-03-21T05:48:15.359Z,7.80
2023-03-21T05:50:42.174Z,7.00
2023-03-21T05:53:09.174Z,6.75
2023-03-21T05:55:36.490Z,6.60
2023-03-21T05:58:03.446Z,6.47
2023-03-21T06:00:30.752Z,6.65
2023-03-21T06:02:57.307Z,6.75
2023-03-21T06:05:23.853Z,7.20
2023-03-21T06:07:50.478Z,6.63
2023-03-21T06:10:17.075Z,7.22
2023-03-21T06:12:43.963Z,6.85
2023-03-21T06:15:11.162Z,6.75
2023-03-21T06:17:37.663Z,7.30
2023-03-21T06:20:06.859Z,6.70
2023-03-21T06:22:34.682Z,7.22
2023-03-21T06:25:01.843Z,6.82
2023-03-21T06:27:28.349Z,6.68
2023-03-21T06:29:54.819Z,6.55
2023-03-21T06:32:21.346Z,6.07
2023-03-21T06:34:47.831Z,6.68
2023-03-21T06:37:14.316Z,5.85
2023-03-21T06:39:41.251Z,6.70
2023-03-21T06:42:07.785Z,5.32
2023-03-21T06:44:34.347Z,6.60
2023-03-21T06:47:01.575Z,5.65
2023-03-21T06:49:28.304Z,5.90
2023-03-21T06:51:54.850Z,6.25
2023-03-21T06:54:21.444Z,5.85
2023-03-21T06:56:47.899Z,5.23
2023-03-21T06:59:14.649Z,5.85
2023-03-21T07:01:42.900Z,6.20
2023-03-21T07:04:10.198Z,5.50
2023-03-21T07:06:37.182Z,5.97
2023-03-21T07:09:05.483Z,4.93
2023-03-21T07:11:32.554Z,5.00
2023-03-21T07:13:59.046Z,5.90
2023-03-21T07:16:25.872Z,4.78
2023-03-21T07:18:52.396Z,5.00
2023-03-21T07:21:18.880Z,5.88
2023-03-21T07:23:45.359Z,5.70
2023-03-21T07:26:11.936Z,4.95
2023-03-21T07:28:38.427Z,5.65
2023-03-21T07:31:06.598Z,5.53
2023-03-21T07:33:33.471Z,5.10
2023-03-21T07:36:00.769Z,4.75
2023-03-21T07:38:27.652Z,4.90
2023-03-21T07:40:54.156Z,4.45
2023-03-21T07:43:20.696Z,5.03
2023-03-21T07:45:47.576Z,4.37
2023-03-21T07:48:14.949Z,5.53
2023-03-21T07:50:41.601Z,4.90
2023-03-21T07:53:08.072Z,5.35
2023-03-21T07:55:35.119Z,3.85
2023-03-21T07:58:03.444Z,4.22
2023-03-21T08:00:30.417Z,4.57
2023-03-21T08:02:59.032Z,5.25
2023-03-21T08:05:37.313Z,5.00
2023-03-21T08:08:05.190Z,5.20
2023-03-21T08:10:32.877Z,4.07
2023-03-21T08:12:59.337Z,4.68
2023-03-21T08:15:25.994Z,4.68
2023-03-21T08:17:52.624Z,4.15
2023-03-21T08:20:21.759Z,4.22
2023-03-21T08:22:49.321Z,4.87
2023-03-21T08:25:17.972Z,4.28
2023-03-21T08:27:45.658Z,3.95
2023-03-21T08:30:14.393Z,6.25
2023-03-21T08:32:42.145Z,4.63
2023-03-21T08:35:40.929Z,4.30
2023-03-21T08:50:10.671Z,3.80
2023-03-21T08:52:37.221Z,3.03
2023-03-21T08:55:04.210Z,3.40
2023-03-21T08:57:30.834Z,3.08
2023-03-21T08:59:57.346Z,3.50
2023-03-21T09:02:23.830Z,3.47
2023-03-21T09:04:54.700Z,3.72
2023-03-21T09:07:22.076Z,4.00
2023-03-21T09:09:58.137Z,3.78
2023-03-21T09:12:29.582Z,3.60
2023-03-21T09:14:56.140Z,4.15
2023-03-21T09:17:22.687Z,3.55
2023-03-21T09:19:50.730Z,2.83
2023-03-21T09:22:21.267Z,2.63
2023-03-21T09:24:48.694Z,2.92
2023-03-21T09:27:25.306Z,2.88
2023-03-21T09:29:52.275Z,2.92
2023-03-21T09:32:19.141Z,2.80
2023-03-21T09:34:45.931Z,3.15
2023-03-21T09:37:13.651Z,3.30
2023-03-21T09:39:41.169Z,3.42
2023-03-21T09:42:42.365Z,2.30
2023-03-21T09:45:39.953Z,3.28
2023-03-21T09:48:22.351Z,2.80
2023-03-21T09:50:49.103Z,3.25
2023-03-21T09:53:30.933Z,3.72
2023-03-21T09:55:57.559Z,3.13
2023-03-21T09:58:40.375Z,3.50
2023-03-21T10:01:22.249Z,2.92
2023-03-21T10:03:53.681Z,3.65
2023-03-21T10:06:30.370Z,4.00
2023-03-21T10:09:07.319Z,3.33
2023-03-21T10:11:50.650Z,2.85
2023-03-21T10:14:26.237Z,3.67
2023-03-21T10:16:57.964Z,3.10
2023-03-21T10:19:24.808Z,3.60
2023-03-21T10:22:00.750Z,3.67
2023-03-21T10:24:33.159Z,3.85
2023-03-21T10:27:01.666Z,3.33
2023-03-21T10:29:33.037Z,3.85
2023-03-21T10:32:00.760Z,3.22
2023-03-21T10:34:37.975Z,3.80
2023-03-21T10:37:06.427Z,3.40
2023-03-21T10:39:38.373Z,4.03
2023-03-21T10:42:04.968Z,3.33
2023-03-21T10:44:33.808Z,2.60
2023-03-21T10:47:07.483Z,3.07
2023-03-21T10:50:05.772Z,3.88
2023-03-21T10:52:28.616Z,3.30
2023-03-21T10:55:22.010Z,3.03
2023-03-21T10:57:53.063Z,3.22
2023-03-21T11:00:23.893Z,2.58
2023-03-21T11:02:53.113Z,2.45
2023-03-21T11:05:34.684Z,2.97
2023-03-21T11:08:13.860Z,2.60
2023-03-21T11:10:52.273Z,2.33
2023-03-21T11:13:24.953Z,2.70
2023-03-21T11:15:58.401Z,3.22
2023-03-21T11:18:27.129Z,2.97
2023-03-21T11:20:58.968Z,2.67
2023-03-21T11:23:28.839Z,2.75
2023-03-21T11:25:55.973Z,2.85
2023-03-21T11:28:25.394Z,2.88
2023-03-21T11:30:57.298Z,2.67
2023-03-21T11:33:27.884Z,3.08
2023-03-21T11:36:02.748Z,2.58
2023-03-21T11:38:33.315Z,3.33
2023-03-21T11:41:01.899Z,2.40
2023-03-21T11:43:31.970Z,2.38
2023-03-21T11:46:04.707Z,3.28
2023-03-21T11:48:36.750Z,2.58
2023-03-21T11:51:12.505Z,2.60
2023-03-21T11:53:56.637Z,2.65
2023-03-21T11:56:27.523Z,2.47
2023-03-21T11:59:19.158Z,2.55
2023-03-21T12:02:13.296Z,3.22
2023-03-21T12:04:57.004Z,2.93
2023-03-21T12:07:42.175Z,2.40
2023-03-21T12:10:26.245Z,3.28
2023-03-21T12:13:09.085Z,2.50
2023-03-21T12:15:47.749Z,3.03
2023-03-21T12:18:14.135Z,2.63
2023-03-21T12:20:50.321Z,3.42
2023-03-21T12:23:41.069Z,2.40
2023-03-21T12:26:29.930Z,2.80
2023-03-21T12:29:40.153Z,3.08
2023-03-21T12:32:09.606Z,3.57
2023-03-21T12:35:00.773Z,2.67
2023-03-21T12:37:57.792Z,2.70
2023-03-21T12:40:40.265Z,2.95
2023-03-21T12:43:21.423Z,3.22
2023-03-21T12:45:54.749Z,3.60
2023-03-21T12:48:30.636Z,2.58
2023-03-21T12:51:01.021Z,3.50
2023-03-21T12:53:34.484Z,3.75
2023-03-21T12:56:03.060Z,3.88
2023-03-21T12:58:33.976Z,3.53
2023-03-21T13:01:04.549Z,3.78
2023-03-21T13:03:40.619Z,3.28
2023-03-21T13:06:11.592Z,3.35
2023-03-21T13:08:52.757Z,3.20
2023-03-21T13:11:26.249Z,3.63
2023-03-21T13:14:12.393Z,3.60
2023-03-21T13:16:52.682Z,3.67
2023-03-21T13:19:38.864Z,3.85
2023-03-21T13:22:26.913Z,4.72
2023-03-21T13:24:59.493Z,4.10
2023-03-21T13:27:29.462Z,4.13
2023-03-21T13:30:14.432Z,4.38
2023-03-21T13:32:43.603Z,3.80
2023-03-21T13:35:27.711Z,5.03
2023-03-21T13:37:59.358Z,3.40
2023-03-21T13:40:34.895Z,3.70
2023-03-21T13:43:03.773Z,4.25
2023-03-21T13:45:46.196Z,3.75
2023-03-21T13:48:30.936Z,4.03
2023-03-21T13:51:02.156Z,3.80
2023-03-21T13:53:40.340Z,3.65
2023-03-21T13:56:15.969Z,3.97
2023-03-21T13:58:45.799Z,3.30
2023-03-21T14:01:30.717Z,3.40
2023-03-21T14:04:14.316Z,3.20
2023-03-21T14:06:57.704Z,3.35
2023-03-21T14:09:36.290Z,3.67
2023-03-21T14:12:07.814Z,3.50
2023-03-21T14:14:42.000Z,3.45
2023-03-21T14:17:34.920Z,3.87
2023-03-21T14:20:33.933Z,4.32
2023-03-21T14:23:00.904Z,4.10
2023-03-21T14:25:40.960Z,3.75
2023-03-21T14:28:20.799Z,3.40
2023-03-21T14:30:53.842Z,4.03
2023-03-21T14:33:31.765Z,4.40
2023-03-21T14:36:00.045Z,4.07
2023-03-21T14:38:32.976Z,3.60
2023-03-21T14:40:59.469Z,3.85
2023-03-21T14:43:26.748Z,4.03
2023-03-21T14:45:56.538Z,4.15
2023-03-21T14:48:35.196Z,3.13
2023-03-21T14:51:05.957Z,3.97
2023-03-21T14:53:36.913Z,4.30
2023-03-21T14:56:27.892Z,3.57
2023-03-21T14:58:54.899Z,3.40
2023-03-21T15:01:31.111Z,3.83
2023-03-21T15:04:00.544Z,3.78
2023-03-21T15:06:27.435Z,3.95
2023-03-21T15:09:05.032Z,4.27
2023-03-21T15:11:34.174Z,3.95
2023-03-21T15:14:06.582Z,4.38
2023-03-21T15:16:34.256Z,3.72
2023-03-21T15:19:02.062Z,3.70
2023-03-21T15:21:36.103Z,4.23
2023-03-21T15:24:27.610Z,4.05
2023-03-21T15:27:00.894Z,3.63
2023-03-21T15:29:28.024Z,3.72
2023-03-21T15:31:55.905Z,3.60
2023-03-21T15:34:30.664Z,4.83
2023-03-21T15:37:09.078Z,3.78
2023-03-21T15:39:38.314Z,3.75
2023-03-21T15:42:22.389Z,3.60
2023-03-21T15:44:53.096Z,3.42
2023-03-21T15:47:50.008Z,4.63
2023-03-21T15:50:41.569Z,4.60
2023-03-21T15:53:15.594Z,4.35
2023-03-21T15:55:49.888Z,3.95
2023-03-21T15:58:23.911Z,4.00
2023-03-21T16:00:55.911Z,3.83
2023-03-21T16:03:22.646Z,4.70
2023-03-21T16:06:21.686Z,3.95
2023-03-21T16:09:06.405Z,3.72
2023-03-21T16:11:49.665Z,4.80
2023-03-21T16:14:17.542Z,4.07
2023-03-21T16:16:45.816Z,4.32
2023-03-21T16:19:12.866Z,4.00
2023-03-21T16:21:39.522Z,3.83
2023-03-21T16:24:07.496Z,4.90
2023-03-21T16:26:43.455Z,5.53
2023-03-21T16:29:12.155Z,3.97
2023-03-21T16:31:38.747Z,4.47
2023-03-21T16:34:05.761Z,4.53
2023-03-21T16:36:36.972Z,4.90
2023-03-21T16:39:16.647Z,4.37
2023-03-21T16:41:52.194Z,5.28
2023-03-21T16:44:20.063Z,5.57
2023-03-21T16:46:47.369Z,4.60
2023-03-21T16:49:19.941Z,4.22
2023-03-21T16:51:47.074Z,4.13
2023-03-21T16:54:14.157Z,4.28
2023-03-21T16:56:54.032Z,3.78
2023-03-21T16:59:21.430Z,3.47
2023-03-21T17:01:49.185Z,3.40
2023-03-21T17:04:17.700Z,2.87
2023-03-21T17:06:50.450Z,2.83
2023-03-21T17:09:21.331Z,2.85
2023-03-21T17:11:48.126Z,2.83
2023-03-21T17:14:22.467Z,3.00
2023-03-21T17:16:49.778Z,3.65
2023-03-21T17:19:24.049Z,3.45
2023-03-21T17:21:51.907Z,3.65
2023-03-21T17:24:18.922Z,4.28
2023-03-21T17:26:47.183Z,3.60
2023-03-21T17:29:15.195Z,4.35
2023-03-21T17:31:42.931Z,4.03
2023-03-21T17:34:11.298Z,3.70
2023-03-21T17:36:41.548Z,4.32
2023-03-21T17:39:14.806Z,4.13
2023-03-21T17:41:41.444Z,4.10
2023-03-21T17:44:07.912Z,4.50
2023-03-21T17:46:39.276Z,4.22
2023-03-21T17:49:06.421Z,3.17
2023-03-21T17:51:33.214Z,4.00
2023-03-21T17:54:00.644Z,4.00
2023-03-21T17:56:32.665Z,4.00
2023-03-21T17:59:03.897Z,3.58
2023-03-21T18:01:32.036Z,3.30
2023-03-21T18:04:02.100Z,3.53
2023-03-21T18:06:28.644Z,3.33
2023-03-21T18:08:57.579Z,2.78
2023-03-21T18:11:26.515Z,2.58
2023-03-21T18:14:03.596Z,2.50
2023-03-21T18:16:36.650Z,2.53
2023-03-21T18:19:03.553Z,2.55
2023-03-21T18:21:32.908Z,3.80
2023-03-21T18:23:59.487Z,3.38
2023-03-21T18:26:26.020Z,2.97
2023-03-21T18:29:36.581Z,2.92
2023-03-21T18:31:38.855Z,2.60
2023-03-21T18:34:05.347Z,2.88
2023-03-21T18:36:32.092Z,3.00
2023-03-21T18:38:58.842Z,3.25
2023-03-21T18:41:25.943Z,3.70
2023-03-21T18:44:05.887Z,3.58
2023-03-21T18:46:46.979Z,3.10
2023-03-21T18:52:04.736Z,4.18
2023-03-21T18:54:31.588Z,4.10
2023-03-21T18:57:31.752Z,4.28
2023-03-21T18:59:44.879Z,3.92
2023-03-21T19:02:14.120Z,4.50
2023-03-21T19:04:41.209Z,4.75
2023-03-21T19:07:08.520Z,4.57
2023-03-21T19:09:58.193Z,4.25
2023-03-21T19:12:23.598Z,4.38
2023-03-21T19:14:50.602Z,4.45
2023-03-21T19:18:07.803Z,4.55
2023-03-21T19:20:05.578Z,5.00
2023-03-21T19:22:36.698Z,4.10
2023-03-21T19:25:05.630Z,5.65
2023-03-21T19:27:34.610Z,5.78
2023-03-21T19:30:13.837Z,4.85
2023-03-21T19:32:41.420Z,5.15
2023-03-21T19:35:08.755Z,4.65
2023-03-21T19:37:36.294Z,5.70
2023-03-21T19:40:05.343Z,4.65
2023-03-21T19:42:32.497Z,4.93
2023-03-21T19:44:59.191Z,4.88
2023-03-21T19:47:26.252Z,4.88
2023-03-21T19:52:40.728Z,4.97
2023-03-21T19:55:08.139Z,4.57
2023-03-21T19:57:35.451Z,5.82
2023-03-21T20:00:02.640Z,4.55
2023-03-21T20:02:37.148Z,5.30
2023-03-21T20:05:07.010Z,5.03
2023-03-21T20:07:34.001Z,4.55
2023-03-21T20:10:01.079Z,5.20
2023-03-21T20:12:28.733Z,4.63
2023-03-21T20:15:10.323Z,4.25
2023-03-21T20:17:43.274Z,5.93
2023-03-21T20:20:13.717Z,5.38
2023-03-21T20:25:28.336Z,5.32
2023-03-21T20:28:12.910Z,7.25
2023-03-21T20:30:50.404Z,5.43
2023-03-21T20:33:17.698Z,5.38
2023-03-21T20:36:35.651Z,5.30
2023-03-21T20:38:33.660Z,5.90
2023-03-21T20:41:01.770Z,5.95
2023-03-21T20:44:18.282Z,4.95
2023-03-21T20:46:16.575Z,5.90
2023-03-21T20:48:43.259Z,4.40
2023-03-21T20:53:58.818Z,4.53
2023-03-21T20:56:25.805Z,4.55
2023-03-21T20:59:14.642Z,4.50
2023-03-21T21:01:45.582Z,3.85
2023-03-21T21:04:19.451Z,3.63
2023-03-21T21:06:50.817Z,3.38
2023-03-21T21:09:17.844Z,3.45
2023-03-21T21:14:31.155Z,3.13
2023-03-21T21:16:58.936Z,3.10
2023-03-21T21:19:28.126Z,2.95
2023-03-21T21:21:54.641Z,3.10
2023-03-21T21:24:21.612Z,2.50
2023-03-21T21:26:48.641Z,2.67
2023-03-21T21:29:17.199Z,2.80
2023-03-21T21:31:52.075Z,3.58
2023-03-21T21:34:19.830Z,3.33
2023-03-21T21:36:46.603Z,3.05
2023-03-21T21:39:16.945Z,3.20
2023-03-21T21:41:43.527Z,3.38
2023-03-21T21:44:10.946Z,3.28
2023-03-21T21:46:38.111Z,3.85
2023-03-21T21:49:05.363Z,3.92
2023-03-21T21:51:34.034Z,4.55
2023-03-21T21:54:03.826Z,4.70
2023-03-21T21:56:32.497Z,4.70
2023-03-21T21:59:03.174Z,3.85
2023-03-21T22:01:31.449Z,4.63
2023-03-21T22:04:06.010Z,3.53
2023-03-21T22:06:35.108Z,3.78
2023-03-21T22:09:04.770Z,3.10
2023-03-21T22:11:31.829Z,3.28
2023-03-21T22:13:59.896Z,2.88
2023-03-21T22:16:26.618Z,3.07
2023-03-21T22:18:53.194Z,2.60
2023-03-21T22:21:19.993Z,2.58
2023-03-21T22:23:46.684Z,1.88
2023-03-21T22:26:13.349Z,1.80
2023-03-21T22:28:42.164Z,1.80
2023-03-21T22:31:11.694Z,1.70
2023-03-21T22:34:05.508Z,1.20
2023-03-21T22:36:40.550Z,1.38
2023-03-21T22:39:18.756Z,1.20
2023-03-21T22:42:24.056Z,0.93
2023-03-21T22:45:05.664Z,1.38
2023-03-21T22:48:03.996Z,1.08
2023-03-21T22:50:46.688Z,0.90
2023-03-21T22:53:57.431Z,0.95
2023-03-21T23:03:36.332Z,1.30
2023-03-21T23:06:15.941Z,0.57
2023-03-21T23:09:07.986Z,1.05
2023-03-21T23:12:01.811Z,1.13
2023-03-21T23:14:50.506Z,1.25
2023-03-21T23:17:43.289Z,0.95
2023-03-21T23:20:56.906Z,0.60
2023-03-21T23:23:55.691Z,0.70
2023-03-21T23:26:33.123Z,0.63
2023-03-21T23:29:09.873Z,1.00
2023-03-21T23:31:43.817Z,0.52
2023-03-21T23:34:27.058Z,1.10
2023-03-21T23:40:04.648Z,0.40
2023-03-21T23:42:48.169Z,0.30
2023-03-21T23:45:37.532Z,0.28
2023-03-21T23:48:29.356Z,2.17
2023-03-21T23:51:17.407Z,0.50
2023-03-21T23:54:08.509Z,0.30
2023-03-21T23:56:52.747Z,0.47
2023-03-21T23:59:38.387Z,0.55
